Time;durP1;ratioP1;P1;durP2;ratioP2;P2;SDS_P1;SDS_P2;PMS_P1;PMS_P2;Temp;Humidity;BMP_temperature;BMP_pressure;BME280_temperature;BME280_humidity;BME280_pressure;Samples;Min_cycle;Max_cycle;Signal;HPM_P1;HPM_P2
2023/07/06 00:00:51;;;;;;;3.35;2.33;;;;;;;15.84;55.37;97326.69;5958205;23;20308;-80
2023/07/06 00:03:17;;;;;;;2.22;1.52;;;;;;;15.93;55.78;97337.38;6011337;23;20273;-80
2023/07/06 00:05:46;;;;;;;2.83;2.00;;;;;;;16.03;55.22;97343.31;5959138;23;20559;-80
2023/07/06 00:08:13;;;;;;;4.05;1.70;;;;;;;16.05;55.61;97345.69;6006328;23;20085;-80
2023/07/06 00:10:41;;;;;;;3.80;1.90;;;;;;;15.96;55.38;97337.59;6016057;23;20271;-80
2023/07/06 00:13:07;;;;;;;3.88;1.75;;;;;;;16.08;55.30;97345.13;6006651;23;20224;-80
2023/07/06 00:15:34;;;;;;;2.20;1.90;;;;;;;15.98;55.57;97340.72;6006657;23;20353;-80
2023/07/06 00:18:03;;;;;;;2.38;1.35;;;;;;;15.76;56.79;97335.91;5982409;23;20176;-81
2023/07/06 00:20:30;;;;;;;2.10;1.60;;;;;;;15.52;56.77;97343.66;6032495;23;20189;-81
2023/07/06 00:22:55;;;;;;;2.50;1.55;;;;;;;15.59;56.29;97348.59;5982219;23;20346;-80
2023/07/06 00:25:21;;;;;;;2.97;1.40;;;;;;;15.51;57.25;97347.34;5957820;23;20081;-80
2023/07/06 00:27:48;;;;;;;2.08;1.40;;;;;;;15.45;57.94;97349.19;5958413;23;20389;-80
2023/07/06 00:30:18;;;;;;;3.33;1.73;;;;;;;15.47;57.41;97346.31;6006134;23;20225;-80
2023/07/06 00:32:47;;;;;;;2.80;1.65;;;;;;;15.23;57.03;97325.19;6011539;23;20308;-80
2023/07/06 00:35:15;;;;;;;2.92;1.73;;;;;;;15.31;57.82;97337.75;5981383;23;20300;-80
2023/07/06 00:37:41;;;;;;;3.40;1.63;;;;;;;15.26;58.67;97340.38;6029841;23;20196;-79
2023/07/06 00:40:13;;;;;;;3.58;1.67;;;;;;;15.20;58.29;97331.78;6006078;23;20397;-80
2023/07/06 00:42:39;;;;;;;1.85;1.58;;;;;;;15.20;58.36;97344.88;5982345;23;20176;-80
2023/07/06 00:45:08;;;;;;;2.97;1.83;;;;;;;15.20;57.25;97328.34;6028488;23;20188;-80
2023/07/06 00:47:42;;;;;;;2.00;1.60;;;;;;;15.31;57.69;97343.75;5958165;23;20200;-80
2023/07/06 00:50:20;;;;;;;2.17;1.70;;;;;;;15.28;57.99;97343.53;5980899;23;20570;-80
2023/07/06 00:52:51;;;;;;;3.58;1.70;;;;;;;15.15;58.32;97335.19;6004160;23;20264;-80
2023/07/06 00:55:18;;;;;;;1.92;1.70;;;;;;;15.07;58.70;97338.38;6005200;23;20398;-81
2023/07/06 00:57:47;;;;;;;1.83;1.40;;;;;;;15.06;57.94;97336.81;5990186;23;20328;-80
2023/07/06 01:00:20;;;;;;;2.28;1.42;;;;;;;14.90;58.32;97337.91;6027372;23;20201;-79
2023/07/06 01:02:47;;;;;;;1.92;1.58;;;;;;;14.58;58.58;97304.97;6007038;23;20649;-78
2023/07/06 01:05:14;;;;;;;3.10;1.60;;;;;;;14.67;59.00;97336.66;5939424;23;20325;-78
2023/07/06 01:07:44;;;;;;;2.92;1.60;;;;;;;14.74;59.17;97329.34;5910718;23;20274;-79
2023/07/06 01:10:10;;;;;;;2.20;2.00;;;;;;;14.74;59.41;97337.19;5940470;23;20183;-78
2023/07/06 01:12:35;;;;;;;2.13;1.92;;;;;;;14.67;59.67;97336.66;6006398;23;20263;-79
2023/07/06 01:15:00;;;;;;;5.03;2.00;;;;;;;14.68;58.90;97333.78;5909087;23;20113;-78
2023/07/06 01:17:33;;;;;;;2.97;2.17;;;;;;;14.83;58.75;97334.81;6040351;23;20176;-79
2023/07/06 01:20:13;;;;;;;1.85;1.60;;;;;;;14.87;59.64;97335.81;5887013;23;20695;-79
2023/07/06 01:22:50;;;;;;;2.38;1.80;;;;;;;14.92;58.95;97341.81;5932630;23;20195;-79
2023/07/06 01:25:37;;;;;;;2.30;1.48;;;;;;;15.03;58.88;97339.16;5921400;23;20704;-79
2023/07/06 01:28:21;;;;;;;2.42;1.50;;;;;;;15.02;58.00;97335.78;5932779;23;20676;-79
2023/07/06 01:31:15;;;;;;;2.78;1.77;;;;;;;14.89;59.46;97331.91;6007297;23;20097;-78
2023/07/06 01:34:02;;;;;;;2.70;1.58;;;;;;;15.06;57.70;97338.63;6007203;23;20279;-79
2023/07/06 01:36:34;;;;;;;2.75;1.70;;;;;;;14.94;58.30;97331.88;5909081;23;20291;-79
2023/07/06 01:39:20;;;;;;;2.97;1.90;;;;;;;14.84;59.07;97325.88;6007479;23;20228;-79
2023/07/06 01:42:06;;;;;;;2.75;1.65;;;;;;;14.71;58.81;97330.63;5917745;23;20176;-79
2023/07/06 01:44:32;;;;;;;3.63;1.77;;;;;;;14.71;58.83;97325.41;6030305;23;20232;-79
2023/07/06 01:46:57;;;;;;;2.63;1.90;;;;;;;14.70;58.98;97328.28;5942030;23;20692;-79
2023/07/06 01:49:23;;;;;;;2.35;1.70;;;;;;;14.69;59.12;97342.44;6040192;23;20269;-79
2023/07/06 01:52:07;;;;;;;2.55;1.65;;;;;;;14.65;59.75;97336.97;5908905;23;20161;-79
2023/07/06 01:54:39;;;;;;;3.38;1.88;;;;;;;14.71;58.97;97327.25;5943221;23;20340;-79
2023/07/06 01:57:09;;;;;;;2.20;1.80;;;;;;;14.67;58.81;97336.66;5909317;23;20152;-79
2023/07/06 01:59:37;;;;;;;3.15;1.80;;;;;;;14.23;60.54;97328.34;5910310;23;20250;-78
2023/07/06 02:02:07;;;;;;;2.05;1.63;;;;;;;14.19;61.82;97337.00;5902749;23;20263;-79
2023/07/06 02:04:34;;;;;;;2.30;1.65;;;;;;;14.24;60.82;97327.31;5859888;23;20185;-79
2023/07/06 02:07:01;;;;;;;2.70;1.73;;;;;;;14.48;61.04;97339.03;6010805;23;20251;-79
2023/07/06 02:09:26;;;;;;;3.10;2.10;;;;;;;14.53;59.90;97328.56;6036043;23;20322;-79
2023/07/06 02:11:52;;;;;;;3.85;1.63;;;;;;;14.60;59.73;97329.88;5890261;23;20279;-80
2023/07/06 02:14:19;;;;;;;2.45;1.60;;;;;;;14.57;59.79;97327.00;6001643;23;20264;-78
2023/07/06 02:16:44;;;;;;;2.85;1.80;;;;;;;14.57;59.87;97340.88;5977835;23;20196;-79
2023/07/06 02:19:10;;;;;;;2.88;2.05;;;;;;;14.62;59.57;97332.25;6036674;23;20146;-79
2023/07/06 02:21:36;;;;;;;2.85;1.85;;;;;;;14.59;59.96;97335.41;6011729;23;20146;-80
2023/07/06 02:24:03;;;;;;;3.50;1.75;;;;;;;14.55;59.63;97319.38;5881869;23;20675;-79
2023/07/06 02:26:28;;;;;;;2.65;1.85;;;;;;;14.52;59.58;97332.25;5890784;23;20278;-79
2023/07/06 02:28:54;;;;;;;2.63;1.80;;;;;;;14.55;59.72;97329.88;5976870;23;20701;-80
2023/07/06 02:31:19;;;;;;;2.45;1.70;;;;;;;14.55;59.58;97323.84;5976836;23;20271;-79
2023/07/06 02:33:45;;;;;;;2.67;2.08;;;;;;;14.49;60.69;97322.28;6026354;23;20188;-79
2023/07/06 02:36:11;;;;;;;2.58;1.80;;;;;;;14.46;60.80;97323.59;6011603;23;20372;-79
2023/07/06 02:38:42;;;;;;;2.28;1.77;;;;;;;14.49;60.59;97330.16;5978790;23;20267;-80
2023/07/06 02:41:07;;;;;;;2.50;2.00;;;;;;;14.41;60.90;97323.59;6001840;23;20192;-79
2023/07/06 02:43:32;;;;;;;2.72;1.98;;;;;;;14.34;60.51;97321.28;5977599;23;20583;-79
2023/07/06 02:45:59;;;;;;;3.35;1.92;;;;;;;14.38;60.26;97326.78;5889054;23;20644;-80
2023/07/06 02:48:24;;;;;;;2.83;1.73;;;;;;;14.29;60.48;97326.53;5858402;23;20264;-79
2023/07/06 02:50:51;;;;;;;2.38;1.60;;;;;;;14.34;60.04;97323.91;6011617;23;20263;-79
2023/07/06 02:53:17;;;;;;;1.90;1.58;;;;;;;14.26;60.82;97331.47;5890457;23;20221;-78
2023/07/06 02:55:45;;;;;;;2.47;1.75;;;;;;;14.25;60.67;97330.69;5858952;23;20709;-79
2023/07/06 02:58:11;;;;;;;2.50;1.83;;;;;;;14.25;60.35;97328.06;6001839;23;20184;-79
2023/07/06 03:00:36;;;;;;;2.20;1.90;;;;;;;14.23;59.86;97330.97;6010259;23;20236;-79
2023/07/06 03:03:04;;;;;;;1.75;1.60;;;;;;;14.23;59.89;97328.34;6028049;23;20275;-79
2023/07/06 03:05:33;;;;;;;3.13;1.88;;;;;;;14.36;59.58;97327.03;5890508;23;20612;-79
2023/07/06 03:07:58;;;;;;;3.47;2.05;;;;;;;14.33;59.65;97329.41;6010174;23;20647;-79
2023/07/06 03:10:23;;;;;;;3.60;2.00;;;;;;;14.23;59.88;97330.19;5915069;23;20275;-79
2023/07/06 03:12:51;;;;;;;5.07;1.80;;;;;;;14.10;60.04;97321.00;6011546;23;20165;-78
2023/07/06 03:15:16;;;;;;;2.45;1.73;;;;;;;14.04;60.65;97324.69;5858874;23;20216;-78
2023/07/06 03:17:48;;;;;;;2.28;2.08;;;;;;;13.95;61.00;97326.25;6010101;23;20169;-78
2023/07/06 03:20:15;;;;;;;2.70;2.00;;;;;;;13.88;62.33;97318.69;5889927;23;20085;-79
2023/07/06 03:22:45;;;;;;;1.85;1.65;;;;;;;13.94;62.09;97328.09;5890109;23;20271;-79
2023/07/06 03:25:19;;;;;;;2.58;2.00;;;;;;;13.91;61.09;97327.84;6010085;23;20324;-79
2023/07/06 03:27:46;;;;;;;2.20;2.00;;;;;;;13.67;60.90;97321.28;5979356;23;20188;-78
2023/07/06 03:30:13;;;;;;;2.90;1.73;;;;;;;13.59;61.28;97324.41;5891460;23;20181;-80
2023/07/06 03:32:39;;;;;;;3.78;1.88;;;;;;;13.50;62.16;97325.97;5979045;23;20629;-78
2023/07/06 03:35:05;;;;;;;2.38;1.60;;;;;;;13.46;61.52;97338.00;5859424;23;20201;-79
2023/07/06 03:37:31;;;;;;;2.80;1.90;;;;;;;13.41;62.27;97335.38;6003806;23;20173;-78
2023/07/06 03:39:57;;;;;;;2.85;2.10;;;;;;;13.32;62.02;97326.47;5979337;23;20367;-78
2023/07/06 03:42:22;;;;;;;1.85;1.55;;;;;;;13.41;61.92;97335.38;5978910;23;20180;-79
2023/07/06 03:44:47;;;;;;;3.00;1.70;;;;;;;13.48;61.12;97339.28;6002122;23;20196;-78
2023/07/06 03:47:14;;;;;;;1.55;1.45;;;;;;;13.43;61.64;97334.06;6002438;23;20570;-79
2023/07/06 03:49:40;;;;;;;2.03;1.70;;;;;;;13.50;61.04;97341.66;6012436;23;20153;-79
2023/07/06 03:52:06;;;;;;;2.55;1.98;;;;;;;13.45;61.43;97337.22;6011445;23;20142;-79
2023/07/06 03:54:33;;;;;;;2.47;1.75;;;;;;;13.38;61.18;97338.50;5890785;23;20182;-78
2023/07/06 03:56:58;;;;;;;2.03;1.70;;;;;;;13.37;61.78;97339.56;6012684;23;20185;-78
2023/07/06 03:59:24;;;;;;;1.60;1.50;;;;;;;13.40;61.55;97339.81;6012314;23;20202;-78
2023/07/06 04:01:49;;;;;;;2.03;1.80;;;;;;;13.44;61.42;97345.31;5978658;23;20176;-78
2023/07/06 04:04:16;;;;;;;2.72;1.88;;;;;;;13.45;62.19;97349.50;5978714;23;20357;-79
2023/07/06 04:06:41;;;;;;;3.53;2.28;;;;;;;13.37;62.21;97360.47;5979124;23;20188;-79
2023/07/06 04:09:09;;;;;;;2.67;1.80;;;;;;;13.45;62.90;97357.34;5979532;23;20149;-78
2023/07/06 04:11:35;;;;;;;3.60;2.05;;;;;;;13.53;61.99;97353.44;5890666;23;20267;-78
2023/07/06 04:14:00;;;;;;;2.63;1.77;;;;;;;13.62;61.83;97357.91;5979846;23;20247;-78
2023/07/06 04:16:26;;;;;;;1.90;1.80;;;;;;;13.67;61.59;97355.31;5858099;23;20180;-78
2023/07/06 04:18:52;;;;;;;2.63;1.70;;;;;;;13.76;61.77;97360.00;5859627;23;20237;-79
2023/07/06 04:21:21;;;;;;;2.13;1.65;;;;;;;13.76;60.95;97354.78;5955817;23;20176;-78
2023/07/06 04:23:47;;;;;;;2.65;1.67;;;;;;;13.78;61.42;97355.31;5891598;23;20216;-79
2023/07/06 04:26:14;;;;;;;1.75;1.60;;;;;;;13.88;61.26;97363.19;5890779;23;20605;-78
2023/07/06 04:28:40;;;;;;;3.33;1.90;;;;;;;13.84;61.75;97364.72;6013067;23;20249;-79
2023/07/06 04:31:06;;;;;;;2.58;2.03;;;;;;;13.90;61.69;97358.47;5977087;23;20672;-79
2023/07/06 04:33:32;;;;;;;2.42;1.83;;;;;;;13.97;62.18;97363.44;5979135;23;20080;-78
2023/07/06 04:35:57;;;;;;;2.75;2.28;;;;;;;13.93;62.36;97363.19;6012448;23;20180;-79
2023/07/06 04:38:25;;;;;;;1.70;1.58;;;;;;;14.04;62.17;97364.75;6012488;23;20188;-78
2023/07/06 04:40:51;;;;;;;2.47;1.83;;;;;;;14.18;62.54;97364.22;5859867;23;20256;-78
2023/07/06 04:43:16;;;;;;;2.33;1.88;;;;;;;14.33;61.72;97366.84;5859540;23;20275;-79
2023/07/06 04:45:44;;;;;;;3.85;2.20;;;;;;;14.42;61.69;97365.25;5978248;23;20565;-79
2023/07/06 04:48:10;;;;;;;3.85;2.40;;;;;;;14.55;61.45;97361.31;6003140;23;20259;-79
2023/07/06 04:50:37;;;;;;;2.08;1.90;;;;;;;14.56;60.81;97362.09;5981295;23;20027;-79
2023/07/06 04:53:03;;;;;;;2.97;2.03;;;;;;;14.67;61.33;97370.75;6016063;23;20660;-79
2023/07/06 04:55:30;;;;;;;2.60;1.90;;;;;;;14.81;61.28;97376.22;6014970;23;20042;-79
2023/07/06 04:57:57;;;;;;;2.15;1.95;;;;;;;14.92;60.70;97362.81;6002489;23;20275;-78
2023/07/06 05:00:29;;;;;;;4.95;2.10;;;;;;;15.04;61.42;97367.75;5858940;23;20268;-79
2023/07/06 05:02:59;;;;;;;2.40;2.20;;;;;;;15.07;61.46;97363.81;6004372;23;20264;-78
2023/07/06 05:05:27;;;;;;;2.95;2.13;;;;;;;15.14;60.73;97367.72;5858217;23;20200;-78
2023/07/06 05:07:53;;;;;;;2.72;2.22;;;;;;;15.20;60.48;97365.88;6003011;23;20154;-79
2023/07/06 05:10:19;;;;;;;3.63;2.10;;;;;;;15.13;60.86;97368.78;5978203;23;20154;-80
2023/07/06 05:12:45;;;;;;;2.08;1.88;;;;;;;15.14;61.04;97370.34;5889758;23;20295;-80
2023/07/06 05:15:11;;;;;;;2.63;2.15;;;;;;;15.36;60.48;97377.06;6010485;23;20078;-80
2023/07/06 05:17:38;;;;;;;4.18;2.22;;;;;;;15.47;60.01;97377.78;6000334;23;20256;-80
2023/07/06 05:20:08;;;;;;;2.38;2.00;;;;;;;15.63;59.20;97375.88;6035731;23;20158;-80
2023/07/06 05:22:39;;;;;;;4.22;2.10;;;;;;;15.66;59.44;97381.38;5977067;23;20253;-80
2023/07/06 05:25:05;;;;;;;2.72;2.03;;;;;;;15.79;59.06;97384.47;5915157;23;20141;-81
2023/07/06 05:27:31;;;;;;;3.45;2.20;;;;;;;15.84;58.68;97381.81;5977959;23;20185;-81
2023/07/06 05:29:57;;;;;;;2.83;2.10;;;;;;;15.97;58.69;97386.47;5976177;23;20132;-80
2023/07/06 05:32:22;;;;;;;2.45;1.92;;;;;;;16.05;59.22;97382.44;5985748;23;20570;-79
2023/07/06 05:34:48;;;;;;;2.70;2.00;;;;;;;16.16;58.12;97383.94;5954413;23;20150;-80
2023/07/06 05:37:13;;;;;;;3.03;2.05;;;;;;;16.34;57.77;97389.56;5914552;23;20244;-81
2023/07/06 05:39:38;;;;;;;3.15;2.00;;;;;;;16.47;57.55;97388.94;6011955;23;20656;-81
2023/07/06 05:42:04;;;;;;;3.33;2.53;;;;;;;16.62;56.78;97382.75;5890026;23;20172;-82
2023/07/06 05:44:29;;;;;;;2.90;1.75;;;;;;;16.75;56.57;97383.94;6011887;23;20255;-81
2023/07/06 05:46:55;;;;;;;3.75;2.83;;;;;;;17.01;56.36;97392.34;5978465;23;20248;-80
2023/07/06 05:49:20;;;;;;;3.10;2.10;;;;;;;17.18;56.79;97387.41;6036333;23;20176;-80
2023/07/06 05:51:45;;;;;;;2.42;2.10;;;;;;;17.38;56.56;97386.38;5890316;23;20335;-80
2023/07/06 05:54:11;;;;;;;4.78;2.28;;;;;;;17.59;57.42;97392.16;6003708;23;20184;-80
2023/07/06 05:56:37;;;;;;;2.92;2.15;;;;;;;17.81;56.88;97398.72;5978709;23;20575;-81
2023/07/06 05:59:04;;;;;;;3.05;2.03;;;;;;;17.96;56.49;97390.63;5978508;23;20680;-81
2023/07/06 06:01:30;;;;;;;3.25;2.22;;;;;;;18.11;56.10;97397.53;5859681;23;20208;-79
2023/07/06 06:03:56;;;;;;;2.60;2.28;;;;;;;18.38;55.31;97400.53;6012565;23;20282;-81
2023/07/06 06:06:22;;;;;;;2.28;1.88;;;;;;;18.51;54.39;97397.91;5859565;23;20199;-80
2023/07/06 06:08:49;;;;;;;3.45;2.08;;;;;;;18.65;54.38;97397.16;5978422;23;20275;-81
2023/07/06 06:11:15;;;;;;;2.72;1.90;;;;;;;18.96;53.48;97404.53;5978456;23;20078;-81
2023/07/06 06:13:43;;;;;;;2.10;1.90;;;;;;;19.21;53.29;97401.41;5978740;23;20157;-80
2023/07/06 06:16:11;;;;;;;2.88;1.95;;;;;;;19.38;52.03;97394.72;5977042;23;20574;-81
2023/07/06 06:18:39;;;;;;;3.20;1.98;;;;;;;19.64;52.29;97406.31;5978768;23;20204;-81
2023/07/06 06:21:05;;;;;;;2.30;2.10;;;;;;;19.69;51.87;97407.28;5978136;23;20600;-81
2023/07/06 06:23:32;;;;;;;4.57;2.72;;;;;;;19.89;51.27;97412.16;5889639;23;20191;-81
2023/07/06 06:25:58;;;;;;;3.20;2.00;;;;;;;19.99;50.38;97409.28;5858653;23;20377;-81
2023/07/06 06:28:24;;;;;;;2.90;2.05;;;;;;;20.30;50.14;97416.47;6010588;23;20264;-81
2023/07/06 06:30:49;;;;;;;3.00;1.90;;;;;;;20.39;49.48;97413.88;5977528;23;20488;-80
2023/07/06 06:33:15;;;;;;;3.83;2.03;;;;;;;20.66;48.63;97414.84;5977429;23;20275;-81
2023/07/06 06:35:40;;;;;;;2.90;1.70;;;;;;;20.83;47.40;97412.28;6011529;23;20192;-81
2023/07/06 06:38:05;;;;;;;2.53;2.33;;;;;;;21.06;47.15;97402.41;6036956;23;20611;-81
2023/07/06 06:40:33;;;;;;;2.33;1.92;;;;;;;21.37;46.68;97417.44;6011672;23;20267;-80
2023/07/06 06:43:00;;;;;;;3.00;1.80;;;;;;;21.63;46.17;97419.38;6001257;23;20281;-81
2023/07/06 06:45:25;;;;;;;2.40;2.10;;;;;;;21.72;46.32;97422.81;5978158;23;20176;-81
2023/07/06 06:47:50;;;;;;;1.88;1.67;;;;;;;21.94;44.58;97427.19;5954201;23;20232;-81
2023/07/06 06:50:20;;;;;;;2.17;1.70;;;;;;;21.91;44.79;97422.50;5977481;23;20078;-81
2023/07/06 06:52:46;;;;;;;2.83;1.80;;;;;;;22.13;44.11;97421.56;5978681;23;20221;-81
2023/07/06 06:55:13;;;;;;;2.55;2.00;;;;;;;22.28;43.67;97425.63;5978077;23;20169;-81
2023/07/06 06:57:38;;;;;;;2.40;1.40;;;;;;;22.53;43.11;97424.00;5915015;23;20307;-80
2023/07/06 07:00:14;;;;;;;2.55;1.60;;;;;;;22.68;42.13;97414.00;6012205;23;20195;-83
2023/07/06 07:02:39;;;;;;;3.40;2.00;;;;;;;22.87;41.22;97425.00;5859920;23;20275;-85
2023/07/06 07:05:06;;;;;;;2.60;1.63;;;;;;;22.94;41.63;97427.94;5978098;23;20557;-84
2023/07/06 07:07:31;;;;;;;2.55;1.50;;;;;;;23.07;40.38;97428.09;5890642;23;20537;-83
2023/07/06 07:09:57;;;;;;;4.20;1.70;;;;;;;23.14;40.46;97423.81;5977813;23;20265;-81
2023/07/06 07:12:22;;;;;;;3.65;1.92;;;;;;;22.96;41.78;97435.59;6001378;23;20194;-81
2023/07/06 07:14:48;;;;;;;3.90;1.90;;;;;;;23.29;40.34;97427.03;5977762;23;20220;-81
2023/07/06 07:17:14;;;;;;;3.63;1.88;;;;;;;23.49;40.04;97430.81;5858170;23;20247;-82
2023/07/06 07:19:40;;;;;;;2.60;1.90;;;;;;;23.63;40.58;97425.25;6001871;23;20540;-82
2023/07/06 07:22:06;;;;;;;2.47;2.00;;;;;;;23.69;39.99;97430.06;6010994;23;20188;-81
2023/07/06 07:24:32;;;;;;;3.47;2.10;;;;;;;23.87;39.78;97436.06;6002345;23;20268;-82
2023/07/06 07:27:01;;;;;;;3.53;2.10;;;;;;;23.87;39.15;97429.94;5889552;23;20339;-81
2023/07/06 07:29:26;;;;;;;2.47;1.70;;;;;;;23.98;39.79;97431.13;5858637;23;20145;-81
2023/07/06 07:31:52;;;;;;;3.40;1.80;;;;;;;24.13;39.45;97429.75;5857337;23;20608;-82
2023/07/06 07:34:19;;;;;;;2.53;1.83;;;;;;;23.95;40.00;97431.78;6011061;23;20242;-82
2023/07/06 07:36:44;;;;;;;6.00;2.30;;;;;;;24.10;40.16;97428.50;6002010;23;20201;-81
2023/07/06 07:39:10;;;;;;;2.78;2.03;;;;;;;24.15;39.92;97430.19;6012032;23;20059;-81
2023/07/06 07:41:35;;;;;;;8.05;3.15;;;;;;;24.34;39.76;97427.03;5859245;23;20633;-81
2023/07/06 07:44:01;;;;;;;2.25;2.00;;;;;;;24.02;39.80;97424.03;5976659;23;20725;-82
2023/07/06 07:46:28;;;;;;;2.20;1.92;;;;;;;24.25;40.28;97429.78;5979289;23;20059;-85
2023/07/06 07:48:54;;;;;;;2.92;2.15;;;;;;;24.43;39.36;97424.28;5898075;23;20686;-82
2023/07/06 07:51:25;;;;;;;2.38;1.80;;;;;;;24.74;39.44;97428.38;6017140;23;20091;-82
2023/07/06 07:53:53;;;;;;;3.45;2.22;;;;;;;24.79;38.13;97428.16;5961947;23;20016;-83
2023/07/06 07:56:19;;;;;;;3.50;2.10;;;;;;;24.79;37.94;97428.94;5983504;23;20012;-83
2023/07/06 07:58:47;;;;;;;4.45;2.60;;;;;;;24.36;39.53;97422.16;5987098;23;20464;-82
2023/07/06 08:01:17;;;;;;;3.92;2.25;;;;;;;24.68;38.34;97423.28;6011150;23;20163;-82
2023/07/06 08:03:43;;;;;;;2.17;1.95;;;;;;;24.38;40.53;97417.28;6003985;23;20644;-82
2023/07/06 08:06:10;;;;;;;2.92;1.92;;;;;;;24.74;39.77;97418.50;5985111;23;20208;-82
2023/07/06 08:08:37;;;;;;;2.97;2.08;;;;;;;25.15;37.72;97419.41;5985114;23;20176;-82
2023/07/06 08:11:05;;;;;;;2.20;2.00;;;;;;;25.12;38.51;97421.97;6003745;23;20540;-82
2023/07/06 08:13:31;;;;;;;3.95;2.95;;;;;;;25.35;37.41;97425.00;6012758;23;20518;-82
2023/07/06 08:15:57;;;;;;;2.15;1.92;;;;;;;25.57;35.08;97429.84;6012122;23;20323;-80
2023/07/06 08:18:24;;;;;;;2.70;1.50;;;;;;;25.42;35.62;97422.53;5892115;23;20185;-82
2023/07/06 08:20:54;;;;;;;2.72;2.05;;;;;;;25.89;35.18;97430.00;5980697;23;20180;-82
2023/07/06 08:23:23;;;;;;;2.38;1.90;;;;;;;25.99;35.52;97428.75;6005565;23;20158;-83
2023/07/06 08:25:51;;;;;;;2.15;1.95;;;;;;;26.12;34.58;97424.91;6005781;23;20315;-84
2023/07/06 08:28:20;;;;;;;2.72;1.58;;;;;;;25.93;34.26;97422.84;5981828;23;20146;-83
2023/07/06 08:30:46;;;;;;;2.40;1.50;;;;;;;25.89;33.58;97421.97;5858581;23;20138;-81
2023/07/06 08:33:12;;;;;;;3.15;2.20;;;;;;;26.38;32.03;97431.69;5978384;23;20636;-82
2023/07/06 08:35:43;;;;;;;2.42;1.90;;;;;;;26.49;32.19;97437.28;5982098;23;20164;-82
2023/07/06 08:38:10;;;;;;;2.60;1.45;;;;;;;26.60;30.84;97426.91;5859525;23;20662;-82
2023/07/06 08:40:35;;;;;;;2.63;1.90;;;;;;;26.39;31.44;97435.91;5979787;23;20195;-81
2023/07/06 08:43:03;;;;;;;2.55;1.80;;;;;;;26.03;31.38;97431.50;6013990;23;20071;-82
2023/07/06 08:45:41;;;;;;;2.13;1.50;;;;;;;25.91;32.28;97441.09;6004242;23;20155;-82
2023/07/06 08:48:12;;;;;;;2.05;1.60;;;;;;;25.60;31.78;97437.16;5959410;23;20363;-81
2023/07/06 08:50:38;;;;;;;1.83;1.50;;;;;;;25.51;31.84;97441.84;6006375;23;20273;-83
2023/07/06 08:53:09;;;;;;;3.45;1.60;;;;;;;25.50;31.81;97432.28;5978443;23;20154;-82
2023/07/06 08:55:35;;;;;;;2.70;1.60;;;;;;;25.63;31.54;97430.38;5893873;23;20221;-82
2023/07/06 08:58:03;;;;;;;2.20;1.88;;;;;;;25.90;30.59;97436.84;5981077;23;20148;-81
2023/07/06 09:00:31;;;;;;;2.85;1.90;;;;;;;25.83;32.18;97425.22;5979335;23;20129;-81
2023/07/06 09:03:08;;;;;;;2.25;1.77;;;;;;;26.27;31.79;97434.09;6005238;23;20208;-82
2023/07/06 09:05:37;;;;;;;1.65;1.55;;;;;;;26.44;31.38;97429.53;5979460;23;20259;-82
2023/07/06 09:08:03;;;;;;;2.97;1.95;;;;;;;26.61;29.44;97436.44;5862474;23;20176;-84
2023/07/06 09:10:29;;;;;;;2.15;1.65;;;;;;;26.69;29.64;97424.88;5981185;23;20204;-83
2023/07/06 09:13:11;;;;;;;3.30;3.00;;;;;;;26.24;29.88;97432.09;5978625;23;20244;-81
2023/07/06 09:15:37;;;;;;;3.70;1.70;;;;;;;26.40;30.27;97418.00;6012085;23;20181;-81
2023/07/06 09:18:03;;;;;;;2.17;1.65;;;;;;;26.76;31.82;97421.59;6003637;23;20228;-83
2023/07/06 09:20:28;;;;;;;3.35;2.13;;;;;;;26.96;30.37;97433.91;5956770;23;20217;-82
2023/07/06 09:22:54;;;;;;;2.72;1.90;;;;;;;27.27;30.08;97424.31;5980381;23;20172;-83
2023/07/06 09:25:28;;;;;;;2.38;1.80;;;;;;;27.61;30.25;97424.69;5860348;23;20174;-82
2023/07/06 09:27:56;;;;;;;2.83;1.70;;;;;;;27.74;28.75;97431.44;6015563;23;20007;-82
2023/07/06 09:30:38;;;;;;;1.65;1.55;;;;;;;27.86;29.84;97419.06;6014336;23;20257;-83
2023/07/06 09:33:24;;;;;;;2.78;1.80;;;;;;;28.08;27.97;97410.34;5992464;23;20172;-82
2023/07/06 09:35:54;;;;;;;2.95;1.80;;;;;;;27.81;29.52;97420.91;5983813;23;20153;-84
2023/07/06 09:38:20;;;;;;;2.25;1.90;;;;;;;27.62;29.38;97428.91;5867280;23;20300;-83
2023/07/06 09:40:46;;;;;;;2.00;1.80;;;;;;;26.96;30.60;97425.91;5988587;23;20160;-83
2023/07/06 09:43:21;;;;;;;1.98;1.88;;;;;;;26.99;30.03;97421.75;5863750;23;20185;-83
2023/07/06 09:45:48;;;;;;;2.25;1.70;;;;;;;26.75;30.90;97415.47;5987739;23;20035;-83
2023/07/06 09:48:37;;;;;;;1.80;1.70;;;;;;;27.14;30.87;97422.84;5871275;23;20007;-83
2023/07/06 09:51:11;;;;;;;2.35;2.00;;;;;;;27.64;28.50;97418.63;5989781;23;20015;-83
2023/07/06 09:53:43;;;;;;;3.15;2.15;;;;;;;27.42;29.42;97407.47;6011397;23;20015;-82
2023/07/06 09:56:11;;;;;;;2.13;1.63;;;;;;;27.56;29.26;97408.91;5867983;23;20004;-84
2023/07/06 09:58:36;;;;;;;2.22;2.03;;;;;;;27.35;27.66;97411.88;5868920;23;20003;-81
2023/07/06 10:01:14;;;;;;;3.70;2.25;;;;;;;26.93;28.69;97425.81;6011396;23;20068;-83
2023/07/06 10:03:56;;;;;;;2.65;1.85;;;;;;;26.17;30.09;97415.91;5980675;23;20176;-83
2023/07/06 10:06:30;;;;;;;2.03;1.83;;;;;;;26.06;29.69;97420.16;5980565;23;20261;-82
2023/07/06 10:09:14;;;;;;;2.55;1.95;;;;;;;26.15;29.50;97424.25;6015629;23;20198;-82
2023/07/06 10:11:50;;;;;;;2.75;1.77;;;;;;;26.14;30.65;97408.56;5918754;23;20184;-84
2023/07/06 10:14:23;;;;;;;2.58;1.98;;;;;;;26.40;29.76;97426.00;5979699;23;20624;-83
2023/07/06 10:17:07;;;;;;;2.25;2.05;;;;;;;26.64;29.06;97425.13;5922136;23;20008;-81
2023/07/06 10:19:46;;;;;;;1.98;1.88;;;;;;;27.07;28.29;97418.88;6009268;23;20014;-83
2023/07/06 10:22:20;;;;;;;2.55;2.00;;;;;;;27.44;27.88;97410.56;5983976;23;20086;-82
2023/07/06 10:25:18;;;;;;;2.38;1.88;;;;;;;27.96;29.37;97421.19;6032364;23;20027;-82
2023/07/06 10:27:49;;;;;;;2.97;1.90;;;;;;;28.53;28.18;97411.53;5985459;23;20482;-83
2023/07/06 10:30:31;;;;;;;2.67;1.75;;;;;;;28.99;25.63;97413.44;5985516;23;20008;-81
2023/07/06 10:32:59;;;;;;;2.47;2.28;;;;;;;28.61;25.44;97411.69;5866193;23;20008;-83
2023/07/06 10:35:31;;;;;;;1.90;1.80;;;;;;;28.15;26.59;97423.09;5993823;23;20074;-81
2023/07/06 10:37:57;;;;;;;2.75;2.55;;;;;;;27.61;27.06;97414.75;6019491;23;20765;-82
2023/07/06 10:40:27;;;;;;;3.55;2.00;;;;;;;27.47;28.48;97422.50;5865434;23;20007;-82
2023/07/06 10:43:20;;;;;;;2.35;1.90;;;;;;;27.34;27.95;97427.16;5896087;23;20030;-83
2023/07/06 10:45:56;;;;;;;2.53;2.30;;;;;;;27.08;28.05;97435.72;5868004;23;20878;-82
2023/07/06 10:48:24;;;;;;;3.10;2.00;;;;;;;26.74;28.02;97434.53;5985651;23;20035;-83
2023/07/06 10:51:18;;;;;;;1.83;1.70;;;;;;;26.46;28.74;97432.63;5920319;23;20614;-82
2023/07/06 10:54:10;;;;;;;2.47;2.22;;;;;;;26.01;29.61;97433.75;6006220;23;20035;-82
2023/07/06 10:56:45;;;;;;;3.40;1.50;;;;;;;25.85;30.00;97441.66;5984377;23;20008;-82
2023/07/06 10:59:23;;;;;;;3.17;2.17;;;;;;;25.60;31.69;97436.38;5993075;23;20075;-83
2023/07/06 11:02:01;;;;;;;2.20;2.00;;;;;;;25.82;31.43;97435.09;5984063;23;20027;-82
2023/07/06 11:04:41;;;;;;;2.85;2.15;;;;;;;25.85;32.79;97442.44;5962272;23;20720;-82
2023/07/06 11:07:31;;;;;;;2.20;2.00;;;;;;;26.47;30.04;97431.53;6008537;23;20012;-81
2023/07/06 11:10:20;;;;;;;2.88;2.00;;;;;;;27.20;28.77;97430.28;5921197;23;20014;-83
2023/07/06 11:12:57;;;;;;;2.70;1.88;;;;;;;27.54;28.68;97427.19;5898590;23;20007;-82
2023/07/06 11:15:35;;;;;;;2.72;1.85;;;;;;;27.37;28.35;97426.47;5984640;23;20046;-83
2023/07/06 11:18:05;;;;;;;2.70;1.98;;;;;;;27.20;28.70;97416.13;6041538;23;20042;-83
2023/07/06 11:20:31;;;;;;;2.55;2.13;;;;;;;27.75;28.35;97416.94;6042170;23;20661;-82
2023/07/06 11:23:02;;;;;;;2.25;2.05;;;;;;;27.80;29.39;97421.25;6005626;23;20252;-82
2023/07/06 11:25:29;;;;;;;2.33;1.70;;;;;;;27.68;29.08;97424.06;6010759;23;20177;-82
2023/07/06 11:28:14;;;;;;;4.00;2.65;;;;;;;27.80;28.13;97437.31;6003605;23;20153;-82
2023/07/06 11:30:55;;;;;;;2.47;2.00;;;;;;;27.31;28.02;97427.09;5897318;23;20043;-82
2023/07/06 11:33:51;;;;;;;2.20;2.00;;;;;;;26.96;28.67;97425.91;5984216;23;20790;-83
2023/07/06 11:36:26;;;;;;;2.35;2.10;;;;;;;26.64;28.73;97423.22;5980269;23;20011;-82
2023/07/06 11:38:55;;;;;;;3.17;1.88;;;;;;;26.61;29.13;97431.88;5983761;23;20103;-82
2023/07/06 11:41:29;;;;;;;3.22;2.25;;;;;;;26.62;29.74;97435.34;6009992;23;20098;-81
2023/07/06 11:44:02;;;;;;;3.17;1.85;;;;;;;26.31;30.46;97432.28;6008575;23;20756;-82